createdAt,value
2022-12-29T00:01:58.818Z,71.16
2022-12-29T00:04:25.370Z,71.31
2022-12-29T00:06:53.236Z,71.08
2022-12-29T00:09:20.009Z,71.43
2022-12-29T00:11:46.599Z,71.30
2022-12-29T00:14:32.445Z,71.08
2022-12-29T00:16:58.999Z,70.88
2022-12-29T00:19:48.891Z,70.91
2022-12-29T00:22:34.719Z,70.62
2022-12-29T00:25:20.812Z,70.88
2022-12-29T00:28:07.614Z,70.46
2022-12-29T00:30:53.202Z,70.24
2022-12-29T00:33:40.367Z,69.64
2022-12-29T00:36:17.464Z,69.62
2022-12-29T00:39:09.176Z,70.46
2022-12-29T00:41:54.017Z,70.30
2022-12-29T00:44:20.539Z,70.16
2022-12-29T00:46:47.050Z,70.02
2022-12-29T00:49:34.059Z,70.08
2022-12-29T00:52:10.153Z,70.28
2022-12-29T00:54:39.098Z,70.50
2022-12-29T00:57:07.673Z,70.65
2022-12-29T00:59:36.621Z,70.25
2022-12-29T01:02:03.576Z,70.51
2022-12-29T01:04:30.185Z,70.89
2022-12-29T01:06:56.711Z,70.25
2022-12-29T01:09:42.112Z,70.92
2022-12-29T01:12:10.356Z,70.67
2022-12-29T01:14:38.413Z,70.64
2022-12-29T01:17:05.772Z,70.39
2022-12-29T01:19:32.229Z,70.46
2022-12-29T01:21:58.879Z,69.87
2022-12-29T01:24:27.022Z,69.81
2022-12-29T01:26:55.357Z,69.83
2022-12-29T01:29:22.239Z,69.34
2022-12-29T01:31:50.709Z,69.58
2022-12-29T01:34:17.594Z,69.27
2022-12-29T01:36:44.943Z,69.28
2022-12-29T01:39:11.446Z,69.86
2022-12-29T01:41:38.054Z,70.23
2022-12-29T01:44:43.314Z,70.29
2022-12-29T01:47:09.820Z,70.78
2022-12-29T01:49:36.477Z,70.88
2022-12-29T01:52:07.333Z,71.15
2022-12-29T01:54:48.188Z,71.08
2022-12-29T01:57:21.460Z,71.53
2022-12-29T01:59:56.425Z,71.39
2022-12-29T02:02:24.167Z,71.33
2022-12-29T02:04:52.507Z,71.18
2022-12-29T02:07:27.253Z,71.30
2022-12-29T02:09:56.297Z,70.71
2022-12-29T02:12:24.644Z,70.69
2022-12-29T02:14:57.577Z,70.36
2022-12-29T02:17:54.441Z,69.68
2022-12-29T02:20:49.085Z,69.80
2022-12-29T02:23:46.280Z,69.25
2022-12-29T02:26:34.826Z,68.61
2022-12-29T02:29:19.787Z,68.47
2022-12-29T02:32:16.955Z,68.08
2022-12-29T02:35:09.766Z,68.03
2022-12-29T02:37:48.192Z,67.43
2022-12-29T02:40:35.644Z,67.28
2022-12-29T02:43:37.413Z,67.09
2022-12-29T02:46:29.017Z,67.01
2022-12-29T02:49:12.181Z,66.98
2022-12-29T02:51:41.616Z,66.14
2022-12-29T02:54:26.986Z,66.09
2022-12-29T02:56:53.513Z,66.34
2022-12-29T02:59:21.394Z,65.71
2022-12-29T03:02:25.951Z,65.85
2022-12-29T03:05:17.979Z,65.81
2022-12-29T03:08:06.297Z,65.80
2022-12-29T03:10:47.083Z,65.34
2022-12-29T03:13:50.872Z,65.20
2022-12-29T03:16:23.492Z,65.12
2022-12-29T03:18:50.175Z,65.06
2022-12-29T03:21:53.401Z,65.02
2022-12-29T03:24:24.030Z,65.22
2022-12-29T03:26:53.920Z,64.85
2022-12-29T03:29:21.644Z,65.00
2022-12-29T03:31:50.577Z,64.57
2022-12-29T03:34:21.541Z,64.79
2022-12-29T03:36:57.718Z,64.51
2022-12-29T03:39:26.118Z,64.90
2022-12-29T03:41:59.049Z,64.95
2022-12-29T03:44:34.263Z,64.92
2022-12-29T03:47:00.731Z,65.19
2022-12-29T03:49:27.143Z,65.16
2022-12-29T03:51:53.571Z,64.95
2022-12-29T03:54:20.058Z,65.40
2022-12-29T03:56:46.465Z,65.00
2022-12-29T03:59:13.034Z,65.92
2022-12-29T04:01:39.699Z,65.61
2022-12-29T04:04:06.223Z,65.49
2022-12-29T04:06:32.734Z,65.40
2022-12-29T04:08:59.224Z,65.13
2022-12-29T04:11:31.218Z,65.27
2022-12-29T04:13:59.549Z,65.20
2022-12-29T04:16:26.051Z,65.28
2022-12-29T04:18:52.575Z,65.39
2022-12-29T04:21:19.212Z,65.04
2022-12-29T04:23:45.764Z,65.04
2022-12-29T04:26:12.236Z,64.83
2022-12-29T04:28:39.028Z,64.95
2022-12-29T04:31:05.890Z,64.38
2022-12-29T04:33:32.415Z,64.62
2022-12-29T04:35:58.855Z,64.65
2022-12-29T04:38:25.390Z,64.67
2022-12-29T04:40:52.455Z,64.35
2022-12-29T04:43:23.190Z,64.76
2022-12-29T04:45:50.276Z,64.48
2022-12-29T04:48:16.974Z,64.88
2022-12-29T04:50:45.074Z,64.98
2022-12-29T04:53:11.535Z,64.23
2022-12-29T04:55:37.997Z,65.06
2022-12-29T04:58:04.631Z,64.72
2022-12-29T05:00:31.127Z,64.88
2022-12-29T05:02:57.914Z,64.96
2022-12-29T05:05:24.689Z,65.12
2022-12-29T05:07:51.394Z,64.85
2022-12-29T05:10:18.060Z,64.86
2022-12-29T05:12:45.208Z,65.02
2022-12-29T05:15:12.297Z,64.60
2022-12-29T05:17:38.922Z,65.14
2022-12-29T05:20:06.978Z,64.73
2022-12-29T05:22:34.321Z,64.52
2022-12-29T05:25:00.859Z,65.22
2022-12-29T05:27:27.386Z,65.09
2022-12-29T05:29:53.930Z,65.51
2022-12-29T05:32:20.707Z,65.17
2022-12-29T05:34:47.357Z,65.23
2022-12-29T05:37:13.822Z,64.88
2022-12-29T05:39:40.948Z,65.18
2022-12-29T05:42:07.412Z,65.50
2022-12-29T05:44:34.229Z,65.26
2022-12-29T05:47:00.931Z,65.12
2022-12-29T05:49:27.452Z,65.36
2022-12-29T05:51:53.897Z,65.05
2022-12-29T05:54:20.397Z,65.35
2022-12-29T05:56:46.920Z,65.30
2022-12-29T05:59:13.425Z,64.60
2022-12-29T06:01:40.109Z,64.76
2022-12-29T06:04:06.678Z,64.90
2022-12-29T06:06:33.230Z,65.15
2022-12-29T06:08:59.691Z,65.01
2022-12-29T06:11:26.351Z,65.11
2022-12-29T06:13:52.933Z,64.44
2022-12-29T06:16:19.574Z,65.22
2022-12-29T06:18:46.343Z,64.51
2022-12-29T06:21:12.805Z,65.08
2022-12-29T06:23:39.716Z,64.83
2022-12-29T06:26:06.164Z,64.89
2022-12-29T06:28:32.679Z,64.93
2022-12-29T06:30:59.203Z,64.75
2022-12-29T06:33:25.684Z,65.23
2022-12-29T06:35:52.201Z,64.73
2022-12-29T06:38:18.656Z,64.12
2022-12-29T06:40:46.184Z,64.77
2022-12-29T06:43:12.904Z,64.92
2022-12-29T06:45:41.184Z,64.82
2022-12-29T06:48:08.519Z,64.83
2022-12-29T06:50:35.024Z,64.88
2022-12-29T06:53:01.566Z,65.11
2022-12-29T06:55:29.207Z,65.03
2022-12-29T06:57:59.403Z,64.90
2022-12-29T07:00:26.184Z,65.41
2022-12-29T07:02:53.215Z,65.12
2022-12-29T07:05:20.082Z,64.78
2022-12-29T07:07:46.893Z,64.65
2022-12-29T07:10:13.374Z,65.29
2022-12-29T07:12:39.837Z,64.93
2022-12-29T07:15:07.000Z,65.33
2022-12-29T07:17:33.663Z,65.39
2022-12-29T07:20:00.504Z,65.27
2022-12-29T07:22:27.067Z,65.67
2022-12-29T07:24:53.517Z,65.61
2022-12-29T07:27:20.141Z,65.75
2022-12-29T07:29:46.706Z,65.95
2022-12-29T07:32:13.311Z,65.88
2022-12-29T07:34:40.722Z,65.74
2022-12-29T07:37:07.449Z,65.72
2022-12-29T07:39:34.022Z,65.71
2022-12-29T07:42:04.886Z,65.99
2022-12-29T07:44:32.177Z,66.37
2022-12-29T07:46:59.288Z,66.06
2022-12-29T07:49:26.864Z,65.87
2022-12-29T07:51:53.407Z,65.87
2022-12-29T07:54:19.848Z,65.66
2022-12-29T07:56:46.703Z,65.76
2022-12-29T07:59:13.218Z,65.50
2022-12-29T08:01:40.195Z,65.59
2022-12-29T08:04:07.092Z,65.71
2022-12-29T08:06:33.687Z,65.46
2022-12-29T08:09:08.173Z,64.94
2022-12-29T08:11:39.440Z,64.98
2022-12-29T08:14:06.012Z,65.02
2022-12-29T08:16:33.456Z,64.58
2022-12-29T08:19:00.524Z,64.59
2022-12-29T08:21:28.568Z,64.89
2022-12-29T08:23:55.047Z,64.72
2022-12-29T08:26:21.709Z,64.85
2022-12-29T08:28:48.131Z,64.67
2022-12-29T08:31:14.836Z,64.23
2022-12-29T08:33:41.345Z,64.85
2022-12-29T08:36:08.426Z,64.95
2022-12-29T08:38:34.902Z,64.82
2022-12-29T08:41:04.025Z,64.75
2022-12-29T08:43:31.220Z,64.43
2022-12-29T08:46:01.485Z,64.50
2022-12-29T08:48:28.237Z,64.30
2022-12-29T08:50:54.743Z,64.42
2022-12-29T08:53:21.229Z,64.51
2022-12-29T08:55:48.393Z,64.63
2022-12-29T08:58:15.649Z,64.26
2022-12-29T09:00:43.511Z,63.94
2022-12-29T09:03:10.411Z,64.40
2022-12-29T09:05:37.312Z,64.21
2022-12-29T09:08:04.402Z,63.87
2022-12-29T09:10:31.434Z,63.71
2022-12-29T09:12:58.689Z,63.62
2022-12-29T09:15:25.163Z,63.53
2022-12-29T09:17:51.593Z,63.87
2022-12-29T09:20:20.539Z,63.52
2022-12-29T09:22:47.815Z,63.40
2022-12-29T09:25:14.958Z,63.65
2022-12-29T09:27:41.475Z,63.16
2022-12-29T09:30:10.994Z,63.29
2022-12-29T09:32:43.596Z,63.18
2022-12-29T09:35:12.709Z,62.97
2022-12-29T09:37:39.408Z,63.00
2022-12-29T09:40:07.267Z,62.42
2022-12-29T09:42:42.861Z,63.26
2022-12-29T09:45:26.938Z,63.12
2022-12-29T09:47:53.507Z,62.96
2022-12-29T09:50:25.596Z,62.23
2022-12-29T09:53:05.976Z,62.20
2022-12-29T09:55:46.050Z,62.15
2022-12-29T09:58:31.308Z,61.59
2022-12-29T10:01:04.712Z,61.53
2022-12-29T10:04:03.901Z,61.39
2022-12-29T10:07:19.297Z,61.17
2022-12-29T10:09:42.909Z,61.58
2022-12-29T10:12:39.827Z,61.76
2022-12-29T10:15:45.940Z,60.38
2022-12-29T10:18:15.368Z,58.74
2022-12-29T10:20:57.964Z,59.21
2022-12-29T10:23:41.226Z,57.85
2022-12-29T10:26:18.647Z,58.15
2022-12-29T10:29:03.141Z,58.03
2022-12-29T10:31:38.535Z,58.25
2022-12-29T10:34:16.663Z,57.95
2022-12-29T10:36:49.877Z,57.88
2022-12-29T10:39:44.263Z,57.46
2022-12-29T10:42:26.821Z,56.82
2022-12-29T10:44:55.252Z,56.17
2022-12-29T10:47:29.248Z,56.92
2022-12-29T10:49:56.521Z,58.81
2022-12-29T10:52:24.472Z,58.30
2022-12-29T10:54:56.943Z,58.88
2022-12-29T10:57:37.297Z,59.47
2022-12-29T11:00:14.049Z,59.73
2022-12-29T11:02:59.085Z,59.76
2022-12-29T11:05:55.170Z,60.07
2022-12-29T11:08:29.454Z,59.72
2022-12-29T11:11:07.216Z,60.82
2022-12-29T11:13:39.320Z,60.23
2022-12-29T11:16:06.312Z,60.89
2022-12-29T11:18:35.028Z,60.95
2022-12-29T11:21:05.427Z,61.05
2022-12-29T11:23:35.246Z,61.90
2022-12-29T11:26:22.775Z,62.14
2022-12-29T11:29:09.431Z,62.32
2022-12-29T11:31:53.653Z,62.37
2022-12-29T11:34:26.533Z,63.31
2022-12-29T11:37:01.064Z,64.79
2022-12-29T11:39:54.137Z,64.82
2022-12-29T11:42:32.457Z,65.77
2022-12-29T11:45:16.127Z,65.80
2022-12-29T11:47:46.327Z,65.99
2022-12-29T11:50:20.207Z,65.91
2022-12-29T11:52:49.038Z,66.75
2022-12-29T11:55:23.000Z,67.03
2022-12-29T11:57:51.801Z,67.63
2022-12-29T12:00:25.917Z,68.19
2022-12-29T12:03:05.898Z,68.57
2022-12-29T12:05:47.449Z,69.55
2022-12-29T12:11:34.190Z,71.87
2022-12-29T12:14:06.258Z,72.38
2022-12-29T12:16:42.593Z,71.76
2022-12-29T12:19:44.372Z,72.72
2022-12-29T12:22:16.793Z,73.41
2022-12-29T12:25:01.868Z,73.70
2022-12-29T12:27:58.631Z,74.02
2022-12-29T12:30:28.156Z,73.74
2022-12-29T12:33:06.874Z,73.95
2022-12-29T12:35:52.309Z,73.65
2022-12-29T12:38:21.507Z,73.46
2022-12-29T12:40:54.762Z,73.43
2022-12-29T12:43:33.546Z,72.87
2022-12-29T12:46:18.914Z,72.40
2022-12-29T12:48:59.301Z,72.30
2022-12-29T12:51:48.300Z,72.84
2022-12-29T12:54:31.727Z,73.05
2022-12-29T12:57:09.723Z,72.95
2022-12-29T13:00:09.867Z,72.23
2022-12-29T13:03:18.389Z,71.82
2022-12-29T13:06:35.804Z,71.76
2022-12-29T13:09:11.133Z,72.67
2022-12-29T13:12:12.898Z,73.23
2022-12-29T13:14:48.262Z,72.76
2022-12-29T13:17:37.463Z,72.93
2022-12-29T13:20:06.986Z,73.71
2022-12-29T13:22:42.559Z,73.01
2022-12-29T13:25:33.926Z,73.54
2022-12-29T13:28:18.014Z,73.64
2022-12-29T13:30:59.789Z,74.04
2022-12-29T13:34:04.512Z,73.79
2022-12-29T13:36:35.865Z,74.03
2022-12-29T13:39:20.666Z,74.38
2022-12-29T13:41:55.044Z,73.99
2022-12-29T13:44:26.401Z,73.72
2022-12-29T13:46:55.189Z,73.96
2022-12-29T13:49:25.459Z,74.31
2022-12-29T13:51:59.829Z,73.71
2022-12-29T13:54:33.212Z,74.50
2022-12-29T13:57:27.625Z,73.98
2022-12-29T14:00:16.429Z,74.54
2022-12-29T14:02:45.943Z,74.43
2022-12-29T14:05:21.481Z,75.16
2022-12-29T14:07:49.569Z,75.01
2022-12-29T14:10:30.252Z,74.85
2022-12-29T14:13:26.708Z,75.38
2022-12-29T14:16:02.668Z,75.05
2022-12-29T14:18:42.092Z,74.98
2022-12-29T14:21:14.514Z,74.73
2022-12-29T14:23:49.289Z,74.75
2022-12-29T14:26:35.768Z,74.64
2022-12-29T14:29:30.289Z,74.61
2022-12-29T14:31:56.875Z,74.13
2022-12-29T14:34:23.307Z,74.05
2022-12-29T14:37:17.541Z,74.00
2022-12-29T14:39:46.023Z,74.20
2022-12-29T14:42:15.209Z,74.36
2022-12-29T14:44:58.683Z,74.36
2022-12-29T14:47:31.402Z,74.86
2022-12-29T14:50:24.087Z,74.70
2022-12-29T14:53:02.131Z,74.42
2022-12-29T14:55:43.909Z,74.66
2022-12-29T14:58:27.212Z,75.06
2022-12-29T15:00:54.235Z,74.99
2022-12-29T15:03:24.216Z,74.72
2022-12-29T15:05:52.954Z,74.24
2022-12-29T15:08:24.096Z,74.53
2022-12-29T15:10:56.738Z,74.03
2022-12-29T15:13:26.576Z,74.10
2022-12-29T15:15:56.049Z,74.79
2022-12-29T15:18:31.417Z,74.25
2022-12-29T15:21:04.444Z,73.58
2022-12-29T15:23:33.137Z,72.57
2022-12-29T15:26:04.608Z,72.34
2022-12-29T15:28:46.069Z,72.20
2022-12-29T15:31:24.895Z,72.18
2022-12-29T15:34:04.168Z,72.45
2022-12-29T15:36:41.832Z,72.25
2022-12-29T15:39:26.370Z,73.54
2022-12-29T15:42:32.307Z,73.42
2022-12-29T15:45:10.268Z,74.08
2022-12-29T15:47:37.782Z,74.00
2022-12-29T15:50:23.814Z,74.54
2022-12-29T15:52:50.780Z,74.75
2022-12-29T15:55:27.477Z,74.62
2022-12-29T15:57:58.883Z,74.73
2022-12-29T16:00:29.255Z,74.45
2022-12-29T16:02:58.151Z,74.50
2022-12-29T16:05:25.195Z,74.58
2022-12-29T16:07:59.910Z,74.33
2022-12-29T16:10:42.209Z,73.75
2022-12-29T16:13:34.228Z,73.80
2022-12-29T16:16:10.578Z,72.84
2022-12-29T16:18:38.657Z,72.86
2022-12-29T16:21:13.725Z,72.63
2022-12-29T16:23:50.504Z,72.12
2022-12-29T16:26:19.658Z,71.61
2022-12-29T16:28:49.214Z,70.73
2022-12-29T16:31:37.165Z,70.41
2022-12-29T16:34:22.552Z,70.16
2022-12-29T16:37:04.111Z,68.98
2022-12-29T16:39:40.873Z,69.59
2022-12-29T16:42:39.268Z,69.33
2022-12-29T16:45:21.271Z,68.50
2022-12-29T16:48:06.255Z,67.86
2022-12-29T16:50:35.078Z,67.59
2022-12-29T16:53:04.141Z,67.56
2022-12-29T16:55:31.047Z,67.49
2022-12-29T16:57:59.283Z,67.11
2022-12-29T17:00:29.431Z,66.70
2022-12-29T17:02:59.906Z,65.74
2022-12-29T17:05:26.992Z,65.47
2022-12-29T17:07:53.859Z,65.53
2022-12-29T17:10:20.414Z,64.62
2022-12-29T17:12:49.308Z,64.33
2022-12-29T17:15:24.755Z,64.22
2022-12-29T17:17:55.051Z,63.62
2022-12-29T17:20:30.572Z,63.38
2022-12-29T17:22:59.088Z,62.95
2022-12-29T17:25:34.685Z,63.02
2022-12-29T17:28:04.880Z,62.82
2022-12-29T17:30:34.784Z,62.57
2022-12-29T17:33:10.547Z,62.06
2022-12-29T17:35:37.344Z,61.73
2022-12-29T17:38:10.254Z,62.29
2022-12-29T17:40:36.827Z,62.00
2022-12-29T17:43:03.354Z,61.79
2022-12-29T17:45:32.076Z,61.57
2022-12-29T17:48:02.592Z,62.05
2022-12-29T17:50:31.497Z,61.94
2022-12-29T17:53:02.843Z,61.40
2022-12-29T17:55:36.738Z,61.39
2022-12-29T17:58:15.991Z,61.33
2022-12-29T18:00:42.645Z,61.85
2022-12-29T18:03:17.951Z,62.23
2022-12-29T18:05:45.075Z,62.31
2022-12-29T18:08:12.425Z,62.72
2022-12-29T18:10:39.962Z,62.73
2022-12-29T18:13:07.279Z,62.75
2022-12-29T18:15:36.260Z,62.54
2022-12-29T18:18:11.732Z,62.52
2022-12-29T18:20:39.756Z,62.14
2022-12-29T18:23:07.023Z,62.67
2022-12-29T18:26:05.735Z,62.60
2022-12-29T18:28:32.187Z,62.70
2022-12-29T18:31:01.297Z,62.60
2022-12-29T18:33:28.010Z,62.82
2022-12-29T18:36:03.509Z,63.00
2022-12-29T18:38:31.070Z,62.60
2022-12-29T18:40:58.404Z,63.19
2022-12-29T18:43:25.280Z,63.84
2022-12-29T18:45:51.820Z,63.60
2022-12-29T18:48:20.230Z,63.31
2022-12-29T18:50:49.817Z,63.32
2022-12-29T18:53:18.231Z,63.38
2022-12-29T18:55:45.021Z,63.23
2022-12-29T18:58:12.055Z,63.30
2022-12-29T19:00:38.649Z,63.13
2022-12-29T19:03:05.955Z,63.03
2022-12-29T19:05:37.512Z,62.78
2022-12-29T19:08:04.894Z,62.74
2022-12-29T19:10:31.683Z,63.25
2022-12-29T19:12:59.528Z,63.14
2022-12-29T19:15:35.360Z,63.76
2022-12-29T19:20:52.587Z,63.95
2022-12-29T19:23:24.850Z,64.04
2022-12-29T19:25:52.407Z,64.01
2022-12-29T19:28:24.605Z,64.42
2022-12-29T19:30:52.924Z,65.02
2022-12-29T19:33:21.308Z,65.53
2022-12-29T19:35:48.243Z,65.88
2022-12-29T19:38:14.967Z,65.49
2022-12-29T19:40:43.673Z,65.76
2022-12-29T19:43:14.240Z,65.78
2022-12-29T19:45:41.724Z,66.36
2022-12-29T19:48:13.037Z,65.88
2022-12-29T19:50:39.826Z,66.12
2022-12-29T19:53:06.400Z,66.04
2022-12-29T19:55:33.093Z,66.16
2022-12-29T19:57:59.583Z,66.02
2022-12-29T20:00:26.123Z,66.37
2022-12-29T20:02:53.155Z,66.22
2022-12-29T20:05:20.037Z,65.71
2022-12-29T20:07:46.671Z,65.87
2022-12-29T20:10:13.189Z,66.06
2022-12-29T20:12:39.659Z,66.03
2022-12-29T20:15:08.509Z,66.34
2022-12-29T20:18:10.985Z,66.34
2022-12-29T20:20:21.716Z,66.58
2022-12-29T20:22:48.187Z,66.62
2022-12-29T20:28:01.141Z,66.70
2022-12-29T20:30:27.580Z,67.18
2022-12-29T20:32:54.115Z,66.85
2022-12-29T20:35:20.695Z,66.67
2022-12-29T20:37:47.296Z,66.71
2022-12-29T20:40:13.882Z,66.20
2022-12-29T20:42:40.412Z,66.23
2022-12-29T20:45:07.093Z,66.52
2022-12-29T20:47:33.531Z,65.65
2022-12-29T20:50:00.042Z,65.42
2022-12-29T20:52:27.421Z,65.48
2022-12-29T20:54:54.067Z,65.21
2022-12-29T20:57:20.680Z,65.41
2022-12-29T20:59:47.311Z,65.37
2022-12-29T21:02:23.325Z,64.89
2022-12-29T21:07:36.522Z,65.37
2022-12-29T21:10:03.151Z,64.83
2022-12-29T21:12:29.777Z,64.71
2022-12-29T21:14:56.371Z,64.76
2022-12-29T21:17:22.890Z,64.95
2022-12-29T21:19:49.488Z,64.98
2022-12-29T21:22:15.951Z,65.32
2022-12-29T21:24:42.415Z,64.99
2022-12-29T21:27:08.848Z,65.59
2022-12-29T21:29:35.464Z,65.78
2022-12-29T21:32:06.400Z,64.88
2022-12-29T21:34:34.675Z,65.27
2022-12-29T21:37:01.362Z,64.80
2022-12-29T21:39:27.919Z,64.45
2022-12-29T21:41:59.760Z,64.73
2022-12-29T21:44:45.456Z,64.77
2022-12-29T21:47:12.161Z,64.53
2022-12-29T21:49:38.864Z,64.72
2022-12-29T21:52:05.512Z,64.52
2022-12-29T21:54:50.981Z,64.97
2022-12-29T21:57:37.869Z,64.93
2022-12-29T22:00:25.633Z,64.80
2022-12-29T22:03:16.651Z,64.39
2022-12-29T22:06:07.348Z,64.63
2022-12-29T22:08:52.379Z,64.64
2022-12-29T22:11:37.304Z,64.19
2022-12-29T22:14:04.139Z,64.52
2022-12-29T22:16:30.696Z,64.46
2022-12-29T22:18:57.247Z,64.49
2022-12-29T22:21:24.046Z,64.53
2022-12-29T22:23:50.469Z,64.36
2022-12-29T22:26:17.117Z,64.25
2022-12-29T22:28:46.239Z,64.28
2022-12-29T22:31:29.530Z,63.93
2022-12-29T22:33:57.494Z,64.31
2022-12-29T22:36:24.370Z,64.19
2022-12-29T22:38:50.836Z,63.94
2022-12-29T22:41:17.432Z,63.77
2022-12-29T22:43:43.941Z,63.66
2022-12-29T22:46:10.955Z,63.52
2022-12-29T22:48:39.079Z,63.44
2022-12-29T22:51:07.393Z,63.65
2022-12-29T22:53:34.022Z,63.19
2022-12-29T22:56:09.433Z,63.09
2022-12-29T22:58:39.790Z,63.47
2022-12-29T23:01:06.417Z,63.44
2022-12-29T23:03:34.492Z,63.06
2022-12-29T23:06:03.818Z,63.13
2022-12-29T23:08:36.474Z,62.74
2022-12-29T23:11:04.809Z,62.94
2022-12-29T23:13:33.659Z,62.55
2022-12-29T23:16:00.512Z,62.34
2022-12-29T23:18:27.428Z,61.93
2022-12-29T23:20:54.002Z,62.06
2022-12-29T23:23:46.522Z,61.98
2022-12-29T23:26:16.227Z,61.97
2022-12-29T23:28:42.779Z,61.59
2022-12-29T23:31:09.904Z,62.10
2022-12-29T23:33:36.802Z,61.93
2022-12-29T23:36:03.999Z,61.91
2022-12-29T23:38:30.463Z,61.92
2022-12-29T23:40:57.070Z,61.64
2022-12-29T23:43:23.613Z,61.66
2022-12-29T23:45:51.271Z,61.43
2022-12-29T23:48:18.182Z,61.21
2022-12-29T23:50:45.169Z,61.07
2022-12-29T23:53:12.049Z,61.56
2022-12-29T23:55:43.497Z,61.81
2022-12-29T23:58:10.639Z,61.36
